sensor_id;sensor_type;location;lat;lon;timestamp;pressure;altitude;pressure_sealevel;temperature;humidity
68226;BME280;55045;49.410;11.030;2023-03-21T00:02:06;98302.66;;;6.70;100.00
68226;BME280;55045;49.410;11.030;2023-03-21T00:05:09;98304.19;;;7.03;100.00
68226;BME280;55045;49.410;11.030;2023-03-21T00:08:18;98297.34;;;6.74;100.00
68226;BME280;55045;49.410;11.030;2023-03-21T00:11:22;98303.28;;;7.06;100.00
68226;BME280;55045;49.410;11.030;2023-03-21T00:14:25;98299.63;;;6.55;100.00
68226;BME280;55045;49.410;11.030;2023-03-21T00:17:32;98273.50;;;6.38;100.00
68226;BME280;55045;49.410;11.030;2023-03-21T00:20:37;98296.53;;;6.44;100.00
68226;BME280;55045;49.410;11.030;2023-03-21T00:23:42;98305.16;;;6.42;100.00
68226;BME280;55045;49.410;11.030;2023-03-21T00:26:45;98306.38;;;6.30;100.00
68226;BME280;55045;49.410;11.030;2023-03-21T00:29:48;98301.09;;;6.34;100.00
68226;BME280;55045;49.410;11.030;2023-03-21T00:32:52;98302.78;;;6.35;100.00
68226;BME280;55045;49.410;11.030;2023-03-21T00:35:58;98296.03;;;6.61;100.00
68226;BME280;55045;49.410;11.030;2023-03-21T00:39:09;98289.19;;;6.60;100.00
68226;BME280;55045;49.410;11.030;2023-03-21T00:42:12;98292.81;;;6.54;100.00
68226;BME280;55045;49.410;11.030;2023-03-21T00:45:16;98287.28;;;6.67;100.00
68226;BME280;55045;49.410;11.030;2023-03-21T00:48:20;98282.72;;;6.47;100.00
68226;BME280;55045;49.410;11.030;2023-03-21T00:51:23;98275.88;;;6.46;100.00
68226;BME280;55045;49.410;11.030;2023-03-21T00:54:29;98275.09;;;6.42;100.00
68226;BME280;55045;49.410;11.030;2023-03-21T00:57:32;98269.31;;;6.35;100.00
68226;BME280;55045;49.410;11.030;2023-03-21T01:00:41;98267.63;;;6.33;100.00
68226;BME280;55045;49.410;11.030;2023-03-21T01:03:44;98260.19;;;6.24;100.00
68226;BME280;55045;49.410;11.030;2023-03-21T01:06:52;98258.47;;;6.23;100.00
68226;BME280;55045;49.410;11.030;2023-03-21T01:09:57;98253.63;;;6.14;100.00
68226;BME280;55045;49.410;11.030;2023-03-21T01:13:00;98239.38;;;6.00;100.00
68226;BME280;55045;49.410;11.030;2023-03-21T01:16:06;98243.56;;;6.04;100.00
68226;BME280;55045;49.410;11.030;2023-03-21T01:19:12;98255.47;;;6.09;100.00
68226;BME280;55045;49.410;11.030;2023-03-21T01:22:27;98255.38;;;6.12;100.00
68226;BME280;55045;49.410;11.030;2023-03-21T01:25:32;98262.41;;;6.66;100.00
68226;BME280;55045;49.410;11.030;2023-03-21T01:28:36;98255.88;;;6.24;100.00
68226;BME280;55045;49.410;11.030;2023-03-21T01:31:39;98256.25;;;6.11;100.00
68226;BME280;55045;49.410;11.030;2023-03-21T01:34:45;98255.38;;;6.12;100.00
68226;BME280;55045;49.410;11.030;2023-03-21T01:37:48;98252.97;;;6.05;100.00
68226;BME280;55045;49.410;11.030;2023-03-21T01:40:54;98249.69;;;6.00;100.00
68226;BME280;55045;49.410;11.030;2023-03-21T01:44:01;98252.28;;;5.99;100.00
68226;BME280;55045;49.410;11.030;2023-03-21T01:47:10;98244.22;;;6.11;100.00
68226;BME280;55045;49.410;11.030;2023-03-21T01:50:20;98246.53;;;6.50;100.00
68226;BME280;55045;49.410;11.030;2023-03-21T01:53:49;98242.91;;;6.27;100.00
68226;BME280;55045;49.410;11.030;2023-03-21T01:56:56;98239.84;;;6.15;100.00
68226;BME280;55045;49.410;11.030;2023-03-21T02:00:04;98243.31;;;6.14;100.00
68226;BME280;55045;49.410;11.030;2023-03-21T02:03:35;98243.38;;;6.11;100.00
68226;BME280;55045;49.410;11.030;2023-03-21T02:07:14;98253.44;;;5.87;100.00
68226;BME280;55045;49.410;11.030;2023-03-21T02:10:25;98245.50;;;5.96;100.00
68226;BME280;55045;49.410;11.030;2023-03-21T02:13:33;98247.28;;;5.94;100.00
68226;BME280;55045;49.410;11.030;2023-03-21T02:16:47;98239.63;;;5.93;100.00
68226;BME280;55045;49.410;11.030;2023-03-21T02:20:15;98248.97;;;5.95;100.00
68226;BME280;55045;49.410;11.030;2023-03-21T02:27:08;98238.69;;;5.95;100.00
68226;BME280;55045;49.410;11.030;2023-03-21T02:30:34;98239.13;;;5.77;100.00
68226;BME280;55045;49.410;11.030;2023-03-21T02:34:17;98241.72;;;5.77;100.00
68226;BME280;55045;49.410;11.030;2023-03-21T02:37:31;98244.44;;;5.71;100.00
68226;BME280;55045;49.410;11.030;2023-03-21T02:40:42;98243.28;;;5.83;100.00
68226;BME280;55045;49.410;11.030;2023-03-21T02:43:54;98231.22;;;5.85;100.00
68226;BME280;55045;49.410;11.030;2023-03-21T02:47:02;98238.31;;;5.76;100.00
68226;BME280;55045;49.410;11.030;2023-03-21T02:50:13;98237.25;;;5.84;100.00
68226;BME280;55045;49.410;11.030;2023-03-21T02:53:21;98248.13;;;6.54;100.00
68226;BME280;55045;49.410;11.030;2023-03-21T02:56:27;98236.38;;;5.85;100.00
68226;BME280;55045;49.410;11.030;2023-03-21T02:59:32;98233.03;;;6.12;100.00
68226;BME280;55045;49.410;11.030;2023-03-21T03:02:49;98233.34;;;6.01;100.00
68226;BME280;55045;49.410;11.030;2023-03-21T03:06:16;98232.06;;;5.85;100.00
68226;BME280;55045;49.410;11.030;2023-03-21T03:09:30;98229.41;;;5.88;100.00
68226;BME280;55045;49.410;11.030;2023-03-21T03:12:44;98226.81;;;5.88;100.00
68226;BME280;55045;49.410;11.030;2023-03-21T03:15:59;98225.88;;;5.92;100.00
68226;BME280;55045;49.410;11.030;2023-03-21T03:19:09;98218.31;;;5.86;100.00
68226;BME280;55045;49.410;11.030;2023-03-21T03:22:17;98218.34;;;5.85;100.00
68226;BME280;55045;49.410;11.030;2023-03-21T03:25:30;98219.94;;;5.90;100.00
68226;BME280;55045;49.410;11.030;2023-03-21T03:28:50;98232.84;;;5.87;100.00
68226;BME280;55045;49.410;11.030;2023-03-21T03:31:57;98225.72;;;5.98;100.00
68226;BME280;55045;49.410;11.030;2023-03-21T03:35:07;98217.47;;;5.86;100.00
68226;BME280;55045;49.410;11.030;2023-03-21T03:38:11;98220.94;;;5.85;100.00
68226;BME280;55045;49.410;11.030;2023-03-21T03:41:20;98214.94;;;5.84;100.00
68226;BME280;55045;49.410;11.030;2023-03-21T03:44:29;98221.88;;;5.81;100.00
68226;BME280;55045;49.410;11.030;2023-03-21T03:47:41;98220.00;;;5.87;100.00
68226;BME280;55045;49.410;11.030;2023-03-21T03:51:02;98219.16;;;5.87;100.00
68226;BME280;55045;49.410;11.030;2023-03-21T03:54:32;98216.69;;;5.82;100.00
68226;BME280;55045;49.410;11.030;2023-03-21T03:57:43;98218.00;;;5.98;100.00
68226;BME280;55045;49.410;11.030;2023-03-21T04:00:47;98213.53;;;6.05;100.00
68226;BME280;55045;49.410;11.030;2023-03-21T04:03:50;98213.44;;;5.75;100.00
68226;BME280;55045;49.410;11.030;2023-03-21T04:07:13;98217.13;;;5.67;100.00
68226;BME280;55045;49.410;11.030;2023-03-21T04:10:17;98212.13;;;5.61;100.00
68226;BME280;55045;49.410;11.030;2023-03-21T04:13:22;98219.38;;;5.46;100.00
68226;BME280;55045;49.410;11.030;2023-03-21T04:16:39;98219.50;;;5.40;100.00
68226;BME280;55045;49.410;11.030;2023-03-21T04:19:42;98224.50;;;5.46;100.00
68226;BME280;55045;49.410;11.030;2023-03-21T04:22:46;98217.97;;;5.67;100.00
68226;BME280;55045;49.410;11.030;2023-03-21T04:25:50;98202.28;;;5.11;100.00
68226;BME280;55045;49.410;11.030;2023-03-21T04:29:06;98219.53;;;5.06;100.00
68226;BME280;55045;49.410;11.030;2023-03-21T04:34:12;98228.88;;;5.09;100.00
68226;BME280;55045;49.410;11.030;2023-03-21T04:37:21;98210.97;;;5.06;100.00
68226;BME280;55045;49.410;11.030;2023-03-21T04:40:27;98225.66;;;5.02;100.00
68226;BME280;55045;49.410;11.030;2023-03-21T04:43:30;98227.72;;;4.86;100.00
68226;BME280;55045;49.410;11.030;2023-03-21T04:46:33;98228.66;;;4.84;100.00
68226;BME280;55045;49.410;11.030;2023-03-21T04:49:38;98227.50;;;4.96;100.00
68226;BME280;55045;49.410;11.030;2023-03-21T04:52:45;98216.06;;;4.73;100.00
68226;BME280;55045;49.410;11.030;2023-03-21T04:55:48;98215.09;;;4.77;100.00
68226;BME280;55045;49.410;11.030;2023-03-21T04:58:56;98230.50;;;4.77;100.00
68226;BME280;55045;49.410;11.030;2023-03-21T05:01:59;98216.75;;;5.15;100.00
68226;BME280;55045;49.410;11.030;2023-03-21T05:05:04;98218.50;;;5.13;100.00
68226;BME280;55045;49.410;11.030;2023-03-21T05:08:07;98215.53;;;5.29;100.00
68226;BME280;55045;49.410;11.030;2023-03-21T05:11:12;98215.00;;;5.16;100.00
68226;BME280;55045;49.410;11.030;2023-03-21T05:14:17;98213.94;;;4.90;100.00
68226;BME280;55045;49.410;11.030;2023-03-21T05:17:21;98226.00;;;4.87;100.00
68226;BME280;55045;49.410;11.030;2023-03-21T05:20:27;98226.78;;;4.89;100.00
68226;BME280;55045;49.410;11.030;2023-03-21T05:23:30;98229.31;;;4.92;100.00
68226;BME280;55045;49.410;11.030;2023-03-21T05:26:39;98231.19;;;4.85;100.00
68226;BME280;55045;49.410;11.030;2023-03-21T05:29:49;98233.44;;;4.98;100.00
68226;BME280;55045;49.410;11.030;2023-03-21T05:32:52;98237.78;;;4.96;100.00
68226;BME280;55045;49.410;11.030;2023-03-21T05:35:57;98234.28;;;4.98;100.00
68226;BME280;55045;49.410;11.030;2023-03-21T05:39:05;98242.53;;;5.12;100.00
68226;BME280;55045;49.410;11.030;2023-03-21T05:42:13;98237.38;;;5.12;100.00
68226;BME280;55045;49.410;11.030;2023-03-21T05:45:18;98240.06;;;5.08;100.00
68226;BME280;55045;49.410;11.030;2023-03-21T05:48:23;98241.75;;;5.09;100.00
68226;BME280;55045;49.410;11.030;2023-03-21T05:51:47;98242.31;;;5.20;100.00
68226;BME280;55045;49.410;11.030;2023-03-21T05:54:50;98242.31;;;5.20;100.00
68226;BME280;55045;49.410;11.030;2023-03-21T05:57:57;98252.38;;;5.29;100.00
68226;BME280;55045;49.410;11.030;2023-03-21T06:01:03;98241.13;;;5.35;100.00
68226;BME280;55045;49.410;11.030;2023-03-21T06:04:09;98243.50;;;5.42;100.00
68226;BME280;55045;49.410;11.030;2023-03-21T06:07:17;98244.25;;;5.46;100.00
68226;BME280;55045;49.410;11.030;2023-03-21T06:10:20;98250.25;;;5.46;100.00
68226;BME280;55045;49.410;11.030;2023-03-21T06:13:24;98243.41;;;5.45;100.00
68226;BME280;55045;49.410;11.030;2023-03-21T06:16:27;98250.16;;;5.49;100.00
68226;BME280;55045;49.410;11.030;2023-03-21T06:19:31;98248.38;;;5.52;100.00
68226;BME280;55045;49.410;11.030;2023-03-21T06:22:41;98241.97;;;5.68;100.00
68226;BME280;55045;49.410;11.030;2023-03-21T06:25:46;98228.16;;;5.70;100.00
68226;BME280;55045;49.410;11.030;2023-03-21T06:28:50;98235.94;;;5.69;100.00
68226;BME280;55045;49.410;11.030;2023-03-21T06:31:54;98227.88;;;5.81;100.00
68226;BME280;55045;49.410;11.030;2023-03-21T06:34:58;98234.69;;;5.84;100.00
68226;BME280;55045;49.410;11.030;2023-03-21T06:38:03;98223.25;;;6.25;100.00
68226;BME280;55045;49.410;11.030;2023-03-21T06:41:08;98224.66;;;6.05;100.00
68226;BME280;55045;49.410;11.030;2023-03-21T06:44:17;98221.81;;;6.15;100.00
68226;BME280;55045;49.410;11.030;2023-03-21T06:47:28;98225.63;;;6.31;100.00
68226;BME280;55045;49.410;11.030;2023-03-21T06:50:33;98216.47;;;6.78;100.00
68226;BME280;55045;49.410;11.030;2023-03-21T06:53:38;98208.06;;;6.72;100.00
68226;BME280;55045;49.410;11.030;2023-03-21T06:57:08;98209.69;;;6.76;100.00
68226;BME280;55045;49.410;11.030;2023-03-21T07:00:14;98207.38;;;6.93;100.00
68226;BME280;55045;49.410;11.030;2023-03-21T07:03:20;98210.31;;;7.09;100.00
68226;BME280;55045;49.410;11.030;2023-03-21T07:06:25;98206.50;;;6.94;100.00
68226;BME280;55045;49.410;11.030;2023-03-21T07:09:31;98212.00;;;7.10;100.00
68226;BME280;55045;49.410;11.030;2023-03-21T07:12:41;98204.25;;;7.36;100.00
68226;BME280;55045;49.410;11.030;2023-03-21T07:15:51;98201.28;;;7.72;100.00
68226;BME280;55045;49.410;11.030;2023-03-21T07:18:55;98197.53;;;8.04;100.00
68226;BME280;55045;49.410;11.030;2023-03-21T07:21:58;98191.13;;;8.61;100.00
68226;BME280;55045;49.410;11.030;2023-03-21T07:25:05;98167.06;;;8.59;100.00
68226;BME280;55045;49.410;11.030;2023-03-21T07:28:14;98192.03;;;8.13;100.00
68226;BME280;55045;49.410;11.030;2023-03-21T07:31:18;98176.19;;;8.22;100.00
68226;BME280;55045;49.410;11.030;2023-03-21T07:34:22;98194.06;;;8.28;100.00
68226;BME280;55045;49.410;11.030;2023-03-21T07:37:25;98193.38;;;8.90;100.00
68226;BME280;55045;49.410;11.030;2023-03-21T07:40:32;98191.59;;;9.13;100.00
68226;BME280;55045;49.410;11.030;2023-03-21T07:43:35;98199.38;;;9.33;100.00
68226;BME280;55045;49.410;11.030;2023-03-21T07:46:43;98201.81;;;9.16;100.00
68226;BME280;55045;49.410;11.030;2023-03-21T07:49:47;98204.03;;;9.25;100.00
68226;BME280;55045;49.410;11.030;2023-03-21T07:52:50;98198.28;;;8.97;100.00
68226;BME280;55045;49.410;11.030;2023-03-21T07:55:54;98191.63;;;9.33;100.00
68226;BME280;55045;49.410;11.030;2023-03-21T07:58:58;98197.03;;;9.07;100.00
68226;BME280;55045;49.410;11.030;2023-03-21T08:02:01;98184.47;;;9.59;100.00
68226;BME280;55045;49.410;11.030;2023-03-21T08:05:05;98185.38;;;9.58;100.00
68226;BME280;55045;49.410;11.030;2023-03-21T08:08:08;98190.19;;;9.67;100.00
68226;BME280;55045;49.410;11.030;2023-03-21T08:11:12;98188.28;;;10.09;100.00
68226;BME280;55045;49.410;11.030;2023-03-21T08:14:16;98152.25;;;9.66;100.00
68226;BME280;55045;49.410;11.030;2023-03-21T08:17:19;98187.09;;;10.17;100.00
68226;BME280;55045;49.410;11.030;2023-03-21T08:20:22;98184.81;;;9.90;100.00
68226;BME280;55045;49.410;11.030;2023-03-21T08:23:26;98194.19;;;9.74;100.00
68226;BME280;55045;49.410;11.030;2023-03-21T08:26:30;98190.31;;;10.03;100.00
68226;BME280;55045;49.410;11.030;2023-03-21T08:29:33;98185.13;;;10.03;100.00
68226;BME280;55045;49.410;11.030;2023-03-21T08:32:41;98186.75;;;10.05;100.00
68226;BME280;55045;49.410;11.030;2023-03-21T08:35:45;98183.84;;;10.32;100.00
68226;BME280;55045;49.410;11.030;2023-03-21T08:38:48;98180.94;;;10.57;100.00
68226;BME280;55045;49.410;11.030;2023-03-21T08:41:56;98173.94;;;10.40;100.00
68226;BME280;55045;49.410;11.030;2023-03-21T08:45:00;98163.91;;;10.51;100.00
68226;BME280;55045;49.410;11.030;2023-03-21T08:48:03;98169.66;;;10.94;100.00
68226;BME280;55045;49.410;11.030;2023-03-21T08:51:07;98170.97;;;10.66;100.00
68226;BME280;55045;49.410;11.030;2023-03-21T08:54:17;98159.41;;;10.91;100.00
68226;BME280;55045;49.410;11.030;2023-03-21T08:57:22;98165.97;;;10.98;100.00
68226;BME280;55045;49.410;11.030;2023-03-21T09:00:27;98166.84;;;11.16;100.00
68226;BME280;55045;49.410;11.030;2023-03-21T09:03:30;98166.13;;;10.95;100.00
68226;BME280;55045;49.410;11.030;2023-03-21T09:06:34;98153.59;;;11.03;100.00
68226;BME280;55045;49.410;11.030;2023-03-21T09:09:37;98151.19;;;11.35;100.00
68226;BME280;55045;49.410;11.030;2023-03-21T09:12:44;98152.16;;;11.82;100.00
68226;BME280;55045;49.410;11.030;2023-03-21T09:15:47;98162.25;;;11.89;100.00
68226;BME280;55045;49.410;11.030;2023-03-21T09:18:50;98151.31;;;11.49;100.00
68226;BME280;55045;49.410;11.030;2023-03-21T09:21:56;98152.53;;;11.75;100.00
68226;BME280;55045;49.410;11.030;2023-03-21T09:25:00;98149.53;;;12.00;100.00
68226;BME280;55045;49.410;11.030;2023-03-21T09:28:07;98147.00;;;11.65;100.00
68226;BME280;55045;49.410;11.030;2023-03-21T09:31:11;98119.22;;;11.33;100.00
68226;BME280;55045;49.410;11.030;2023-03-21T09:34:15;98147.50;;;11.39;100.00
68226;BME280;55045;49.410;11.030;2023-03-21T09:37:18;98147.00;;;12.14;100.00
68226;BME280;55045;49.410;11.030;2023-03-21T09:40:30;98146.19;;;11.98;100.00
68226;BME280;55045;49.410;11.030;2023-03-21T09:43:53;98149.97;;;12.08;100.00
68226;BME280;55045;49.410;11.030;2023-03-21T09:47:02;98137.28;;;11.69;100.00
68226;BME280;55045;49.410;11.030;2023-03-21T09:50:12;98142.13;;;12.71;100.00
68226;BME280;55045;49.410;11.030;2023-03-21T09:53:21;98130.84;;;12.25;100.00
68226;BME280;55045;49.410;11.030;2023-03-21T09:56:28;98134.38;;;12.08;100.00
68226;BME280;55045;49.410;11.030;2023-03-21T09:59:35;98137.72;;;12.10;100.00
68226;BME280;55045;49.410;11.030;2023-03-21T10:02:43;98131.22;;;12.64;100.00
68226;BME280;55045;49.410;11.030;2023-03-21T10:05:49;98127.81;;;12.01;100.00
68226;BME280;55045;49.410;11.030;2023-03-21T10:08:55;98125.56;;;12.26;100.00
68226;BME280;55045;49.410;11.030;2023-03-21T10:12:03;98115.66;;;11.68;100.00
68226;BME280;55045;49.410;11.030;2023-03-21T10:15:15;98107.81;;;12.94;100.00
68226;BME280;55045;49.410;11.030;2023-03-21T10:18:23;98113.84;;;12.65;100.00
68226;BME280;55045;49.410;11.030;2023-03-21T10:21:28;98107.84;;;12.49;100.00
68226;BME280;55045;49.410;11.030;2023-03-21T10:24:52;98108.94;;;12.45;100.00
68226;BME280;55045;49.410;11.030;2023-03-21T10:27:56;98086.47;;;12.12;100.00
68226;BME280;55045;49.410;11.030;2023-03-21T10:34:15;98096.44;;;12.04;100.00
68226;BME280;55045;49.410;11.030;2023-03-21T10:37:22;98089.72;;;13.07;100.00
68226;BME280;55045;49.410;11.030;2023-03-21T10:40:25;98076.19;;;12.86;98.15
68226;BME280;55045;49.410;11.030;2023-03-21T10:43:32;98061.47;;;12.71;100.00
68226;BME280;55045;49.410;11.030;2023-03-21T10:46:38;98078.47;;;13.07;100.00
68226;BME280;55045;49.410;11.030;2023-03-21T10:49:46;98085.50;;;12.45;100.00
68226;BME280;55045;49.410;11.030;2023-03-21T10:53:17;98076.97;;;12.88;97.97
68226;BME280;55045;49.410;11.030;2023-03-21T10:56:23;98057.41;;;12.81;97.30
68226;BME280;55045;49.410;11.030;2023-03-21T10:59:35;98071.16;;;12.83;100.00
68226;BME280;55045;49.410;11.030;2023-03-21T11:02:39;98060.53;;;13.16;100.00
68226;BME280;55045;49.410;11.030;2023-03-21T11:05:44;98059.69;;;13.16;100.00
68226;BME280;55045;49.410;11.030;2023-03-21T11:08:49;98057.09;;;13.16;100.00
68226;BME280;55045;49.410;11.030;2023-03-21T11:12:01;98054.94;;;12.64;100.00
68226;BME280;55045;49.410;11.030;2023-03-21T11:15:24;98047.94;;;13.24;100.00
68226;BME280;55045;49.410;11.030;2023-03-21T11:18:30;98044.94;;;13.45;98.42
68226;BME280;55045;49.410;11.030;2023-03-21T11:21:36;98047.16;;;13.08;100.00
68226;BME280;55045;49.410;11.030;2023-03-21T11:24:41;98047.28;;;13.35;100.00
68226;BME280;55045;49.410;11.030;2023-03-21T11:27:52;98048.41;;;13.45;98.96
68226;BME280;55045;49.410;11.030;2023-03-21T11:30:58;98030.44;;;13.41;99.28
68226;BME280;55045;49.410;11.030;2023-03-21T11:34:05;98041.16;;;13.50;100.00
68226;BME280;55045;49.410;11.030;2023-03-21T11:37:17;98039.47;;;13.35;99.88
68226;BME280;55045;49.410;11.030;2023-03-21T11:40:23;98031.34;;;13.68;96.95
68226;BME280;55045;49.410;11.030;2023-03-21T11:43:29;98034.63;;;13.43;97.28
68226;BME280;55045;49.410;11.030;2023-03-21T11:46:38;98029.41;;;13.72;99.14
68226;BME280;55045;49.410;11.030;2023-03-21T11:49:42;97923.00;;;12.94;100.00
68226;BME280;55045;49.410;11.030;2023-03-21T11:52:53;98018.66;;;13.76;99.07
68226;BME280;55045;49.410;11.030;2023-03-21T11:56:15;98022.50;;;14.12;100.00
68226;BME280;55045;49.410;11.030;2023-03-21T11:59:31;98018.75;;;14.16;100.00
68226;BME280;55045;49.410;11.030;2023-03-21T12:02:53;98008.78;;;14.23;100.00
68226;BME280;55045;49.410;11.030;2023-03-21T12:06:12;98009.25;;;13.88;100.00
68226;BME280;55045;49.410;11.030;2023-03-21T12:09:34;97998.44;;;13.94;100.00
68226;BME280;55045;49.410;11.030;2023-03-21T12:12:48;97991.03;;;14.28;100.00
68226;BME280;55045;49.410;11.030;2023-03-21T12:16:02;97991.91;;;14.01;100.00
68226;BME280;55045;49.410;11.030;2023-03-21T12:19:16;97976.88;;;14.84;100.00
68226;BME280;55045;49.410;11.030;2023-03-21T12:22:27;97975.69;;;13.96;100.00
68226;BME280;55045;49.410;11.030;2023-03-21T12:25:39;97981.91;;;13.81;100.00
68226;BME280;55045;49.410;11.030;2023-03-21T12:28:55;97983.22;;;13.74;100.00
68226;BME280;55045;49.410;11.030;2023-03-21T12:32:20;97967.50;;;14.02;98.86
68226;BME280;55045;49.410;11.030;2023-03-21T12:35:39;97963.63;;;14.35;100.00
68226;BME280;55045;49.410;11.030;2023-03-21T12:38:51;97962.13;;;14.70;100.00
68226;BME280;55045;49.410;11.030;2023-03-21T12:42:12;97953.44;;;14.18;100.00
68226;BME280;55045;49.410;11.030;2023-03-21T12:45:21;97956.28;;;14.54;100.00
68226;BME280;55045;49.410;11.030;2023-03-21T12:48:35;97949.78;;;14.47;100.00
68226;BME280;55045;49.410;11.030;2023-03-21T12:51:42;97944.41;;;13.96;100.00
68226;BME280;55045;49.410;11.030;2023-03-21T12:54:48;97947.81;;;14.51;100.00
68226;BME280;55045;49.410;11.030;2023-03-21T12:58:00;97943.13;;;14.68;98.72
68226;BME280;55045;49.410;11.030;2023-03-21T13:01:06;97916.53;;;14.11;100.00
68226;BME280;55045;49.410;11.030;2023-03-21T13:04:27;97938.34;;;14.62;100.00
68226;BME280;55045;49.410;11.030;2023-03-21T13:07:36;97938.16;;;14.38;100.00
68226;BME280;55045;49.410;11.030;2023-03-21T13:10:43;97927.69;;;14.53;100.00
68226;BME280;55045;49.410;11.030;2023-03-21T13:13:51;97921.50;;;14.79;100.00
68226;BME280;55045;49.410;11.030;2023-03-21T13:17:03;97922.34;;;14.80;100.00
68226;BME280;55045;49.410;11.030;2023-03-21T13:20:15;97917.00;;;14.81;96.01
68226;BME280;55045;49.410;11.030;2023-03-21T13:23:23;97919.09;;;14.89;100.00
68226;BME280;55045;49.410;11.030;2023-03-21T13:26:36;97912.22;;;14.88;96.92
68226;BME280;55045;49.410;11.030;2023-03-21T13:29:45;97909.94;;;14.83;98.83
68226;BME280;55045;49.410;11.030;2023-03-21T13:32:54;97910.53;;;14.99;95.85
68226;BME280;55045;49.410;11.030;2023-03-21T13:35:59;97908.03;;;14.47;99.40
68226;BME280;55045;49.410;11.030;2023-03-21T13:39:16;97901.06;;;14.86;97.45
68226;BME280;55045;49.410;11.030;2023-03-21T14:20:54;97792.78;;;14.28;100.00
68226;BME280;55045;49.410;11.030;2023-03-21T14:24:17;97872.22;;;14.87;100.00
68226;BME280;55045;49.410;11.030;2023-03-21T14:27:21;97865.44;;;14.85;98.60
68226;BME280;55045;49.410;11.030;2023-03-21T14:30:27;97866.41;;;14.46;100.00
68226;BME280;55045;49.410;11.030;2023-03-21T14:33:34;97856.69;;;14.60;98.22
68226;BME280;55045;49.410;11.030;2023-03-21T14:36:39;97855.84;;;14.47;99.85
68226;BME280;55045;49.410;11.030;2023-03-21T14:39:56;97852.31;;;14.48;100.00
68226;BME280;55045;49.410;11.030;2023-03-21T14:43:03;97848.13;;;14.58;100.00
68226;BME280;55045;49.410;11.030;2023-03-21T14:46:11;97838.72;;;14.68;100.00
68226;BME280;55045;49.410;11.030;2023-03-21T14:49:26;97850.00;;;14.82;100.00
68226;BME280;55045;49.410;11.030;2023-03-21T14:52:33;97848.41;;;14.79;100.00
68226;BME280;55045;49.410;11.030;2023-03-21T14:55:40;97848.22;;;14.82;100.00
68226;BME280;55045;49.410;11.030;2023-03-21T14:58:44;97848.22;;;14.69;100.00
68226;BME280;55045;49.410;11.030;2023-03-21T15:01:48;97846.66;;;14.67;100.00
68226;BME280;55045;49.410;11.030;2023-03-21T15:04:55;97840.28;;;14.58;100.00
68226;BME280;55045;49.410;11.030;2023-03-21T15:08:02;97832.22;;;14.36;100.00
68226;BME280;55045;49.410;11.030;2023-03-21T15:11:11;97834.97;;;14.47;100.00
68226;BME280;55045;49.410;11.030;2023-03-21T15:14:16;97831.25;;;14.51;100.00
68226;BME280;55045;49.410;11.030;2023-03-21T15:17:21;97827.94;;;14.86;100.00
68226;BME280;55045;49.410;11.030;2023-03-21T15:20:27;97837.38;;;14.76;100.00
68226;BME280;55045;49.410;11.030;2023-03-21T15:23:37;97832.88;;;14.78;100.00
68226;BME280;55045;49.410;11.030;2023-03-21T15:26:43;97825.34;;;14.35;100.00
68226;BME280;55045;49.410;11.030;2023-03-21T15:29:49;97827.25;;;14.20;100.00
68226;BME280;55045;49.410;11.030;2023-03-21T15:32:55;97830.91;;;14.30;100.00
68226;BME280;55045;49.410;11.030;2023-03-21T15:35:59;97827.13;;;14.22;100.00
68226;BME280;55045;49.410;11.030;2023-03-21T15:39:05;97831.09;;;14.27;100.00
68226;BME280;55045;49.410;11.030;2023-03-21T15:42:23;97819.59;;;14.30;100.00
68226;BME280;55045;49.410;11.030;2023-03-21T15:45:27;97818.66;;;14.18;100.00
68226;BME280;55045;49.410;11.030;2023-03-21T15:48:33;97820.97;;;14.23;100.00
68226;BME280;55045;49.410;11.030;2023-03-21T15:51:36;97822.00;;;14.07;100.00
68226;BME280;55045;49.410;11.030;2023-03-21T15:54:43;97819.38;;;14.07;100.00
68226;BME280;55045;49.410;11.030;2023-03-21T15:57:48;97823.03;;;14.18;100.00
68226;BME280;55045;49.410;11.030;2023-03-21T16:00:53;97823.97;;;13.91;100.00
68226;BME280;55045;49.410;11.030;2023-03-21T16:04:01;97824.91;;;13.90;100.00
68226;BME280;55045;49.410;11.030;2023-03-21T16:07:13;97834.06;;;13.96;100.00
68226;BME280;55045;49.410;11.030;2023-03-21T16:10:27;97829.91;;;13.93;100.00
68226;BME280;55045;49.410;11.030;2023-03-21T16:13:30;97824.25;;;13.87;100.00
68226;BME280;55045;49.410;11.030;2023-03-21T16:16:34;97835.13;;;13.93;100.00
68226;BME280;55045;49.410;11.030;2023-03-21T16:19:37;97831.84;;;13.77;100.00
68226;BME280;55045;49.410;11.030;2023-03-21T16:22:42;97825.91;;;13.75;100.00
68226;BME280;55045;49.410;11.030;2023-03-21T16:25:47;97834.44;;;13.77;100.00
68226;BME280;55045;49.410;11.030;2023-03-21T16:28:57;97834.97;;;13.69;100.00
68226;BME280;55045;49.410;11.030;2023-03-21T16:34:11;97836.50;;;13.59;100.00
68226;BME280;55045;49.410;11.030;2023-03-21T16:37:15;97833.97;;;13.58;100.00
68226;BME280;55045;49.410;11.030;2023-03-21T16:40:23;97839.00;;;13.61;100.00
68226;BME280;55045;49.410;11.030;2023-03-21T16:43:28;97837.03;;;13.64;100.00
68226;BME280;55045;49.410;11.030;2023-03-21T16:46:31;97844.75;;;13.66;100.00
68226;BME280;55045;49.410;11.030;2023-03-21T16:49:36;97852.72;;;13.50;100.00
68226;BME280;55045;49.410;11.030;2023-03-21T16:52:39;97851.06;;;13.49;100.00
68226;BME280;55045;49.410;11.030;2023-03-21T16:55:42;97854.41;;;13.37;100.00
68226;BME280;55045;49.410;11.030;2023-03-21T16:58:45;97847.00;;;13.31;100.00
68226;BME280;55045;49.410;11.030;2023-03-21T17:01:49;97851.56;;;13.27;100.00
68226;BME280;55045;49.410;11.030;2023-03-21T17:04:53;97848.78;;;13.16;100.00
68226;BME280;55045;49.410;11.030;2023-03-21T17:07:57;97850.38;;;13.18;100.00